createdAt,value
2017-09-03T00:00:02.141Z,100.0
2017-09-03T00:01:03.044Z,100.0
2017-09-03T00:02:03.699Z,100.0
2017-09-03T00:03:04.366Z,100.0
2017-09-03T00:04:05.061Z,100.0
2017-09-03T00:05:05.716Z,100.0
2017-09-03T00:06:06.668Z,100.0
2017-09-03T00:07:07.322Z,100.0
2017-09-03T00:08:07.975Z,100.0
2017-09-03T00:09:08.629Z,100.0
2017-09-03T00:10:09.281Z,100.0
2017-09-03T00:11:10.235Z,100.0
2017-09-03T00:12:10.891Z,100.0
2017-09-03T00:13:11.580Z,100.0
2017-09-03T00:14:12.232Z,100.0
2017-09-03T00:15:12.886Z,100.0
2017-09-03T00:16:13.791Z,100.0
2017-09-03T00:17:14.480Z,100.0
2017-09-03T00:18:15.135Z,100.0
2017-09-03T00:19:15.788Z,100.0
2017-09-03T00:20:16.442Z,100.0
2017-09-03T00:21:17.352Z,100.0
2017-09-03T00:22:17.998Z,100.0
2017-09-03T00:23:18.651Z,100.0
2017-09-03T00:24:19.305Z,100.0
2017-09-03T00:25:19.958Z,100.0
2017-09-03T00:26:20.911Z,100.0
2017-09-03T00:27:21.564Z,100.0
2017-09-03T00:28:22.219Z,100.0
2017-09-03T00:29:22.870Z,100.0
2017-09-03T00:30:23.524Z,100.0
2017-09-03T00:31:24.428Z,100.0
2017-09-03T00:32:25.082Z,100.0
2017-09-03T00:33:25.734Z,100.0
2017-09-03T00:34:26.437Z,100.0
2017-09-03T00:35:27.091Z,100.0
2017-09-03T00:36:28.028Z,100.0
2017-09-03T00:37:28.717Z,100.0
2017-09-03T00:38:29.369Z,100.0
2017-09-03T00:39:30.022Z,100.0
2017-09-03T00:40:30.677Z,100.0
2017-09-03T00:41:31.579Z,100.0
2017-09-03T00:42:32.231Z,100.0
2017-09-03T00:43:32.885Z,100.0
2017-09-03T00:44:33.539Z,100.0
2017-09-03T00:45:34.191Z,100.0
2017-09-03T00:46:35.145Z,100.0
2017-09-03T00:47:35.797Z,100.0
2017-09-03T00:48:36.458Z,100.0
2017-09-03T00:49:37.105Z,100.0
2017-09-03T00:50:37.761Z,100.0
2017-09-03T00:51:38.668Z,100.0
2017-09-03T00:52:39.317Z,100.0
2017-09-03T00:53:39.978Z,100.0
2017-09-03T00:54:40.661Z,100.0
2017-09-03T00:55:41.312Z,100.0
2017-09-03T00:56:42.220Z,100.0
2017-09-03T00:57:42.872Z,100.0
2017-09-03T00:58:43.525Z,100.0
2017-09-03T00:59:44.180Z,100.0
2017-09-03T01:00:44.832Z,100.0
2017-09-03T01:01:45.736Z,100.0
2017-09-03T01:02:46.392Z,100.0
2017-09-03T01:03:47.043Z,100.0
2017-09-03T01:04:47.699Z,100.0
2017-09-03T01:05:48.351Z,100.0
2017-09-03T01:06:49.255Z,100.0
2017-09-03T01:07:49.908Z,100.0
2017-09-03T01:08:50.560Z,100.0
2017-09-03T01:09:51.214Z,100.0
2017-09-03T01:10:51.866Z,100.0
2017-09-03T01:11:52.822Z,100.0
2017-09-03T01:12:53.476Z,100.0
2017-09-03T01:13:54.129Z,100.0
2017-09-03T01:14:54.783Z,100.0
2017-09-03T01:15:55.436Z,100.0
2017-09-03T01:16:56.340Z,100.0
2017-09-03T01:17:56.994Z,100.0
2017-09-03T01:18:57.648Z,100.0
2017-09-03T01:19:58.302Z,100.0
2017-09-03T01:20:58.954Z,100.0
2017-09-03T01:21:59.909Z,100.0
2017-09-03T01:23:00.561Z,100.0
2017-09-03T01:24:01.216Z,100.0
2017-09-03T01:25:01.868Z,100.0
2017-09-03T01:26:02.523Z,100.0
2017-09-03T01:27:03.431Z,100.0
2017-09-03T01:28:04.078Z,100.0
2017-09-03T01:29:04.731Z,100.0
2017-09-03T01:30:05.386Z,100.0
2017-09-03T01:31:06.038Z,100.0
2017-09-03T01:32:06.942Z,100.0
2017-09-03T01:33:07.596Z,100.0
2017-09-03T01:34:08.249Z,100.0
2017-09-03T01:35:08.938Z,100.0
2017-09-03T01:36:09.627Z,100.0
2017-09-03T01:37:10.530Z,100.0
2017-09-03T01:38:11.184Z,100.0
2017-09-03T01:39:11.838Z,100.0
2017-09-03T01:40:12.494Z,100.0
2017-09-03T01:41:13.145Z,100.0
2017-09-03T01:42:14.051Z,100.0
2017-09-03T01:43:14.736Z,100.0
2017-09-03T01:44:15.389Z,100.0
2017-09-03T01:45:16.045Z,100.0
2017-09-03T01:46:16.697Z,100.0
2017-09-03T01:47:17.602Z,100.0
2017-09-03T01:48:18.257Z,100.0
2017-09-03T01:49:18.909Z,100.0
2017-09-03T01:50:19.562Z,100.0
2017-09-03T01:51:20.215Z,100.0
2017-09-03T01:52:21.120Z,100.0
2017-09-03T01:53:21.773Z,100.0
2017-09-03T01:54:22.427Z,100.0
2017-09-03T01:55:23.081Z,100.0
2017-09-03T01:56:23.733Z,100.0
2017-09-03T01:57:24.677Z,100.0
2017-09-03T01:58:25.361Z,100.0
2017-09-03T01:59:26.015Z,100.0
2017-09-03T02:00:26.669Z,100.0
2017-09-03T02:01:27.321Z,100.0
2017-09-03T02:02:28.224Z,100.0
2017-09-03T02:03:28.879Z,100.0
2017-09-03T02:04:29.531Z,100.0
2017-09-03T02:05:30.184Z,100.0
2017-09-03T02:06:30.836Z,100.0
2017-09-03T02:07:31.740Z,100.0
2017-09-03T02:08:32.393Z,100.0
2017-09-03T02:09:33.046Z,100.0
2017-09-03T02:10:33.713Z,100.0
2017-09-03T02:11:34.364Z,100.0
2017-09-03T02:12:35.267Z,100.0
2017-09-03T02:13:35.921Z,100.0
2017-09-03T02:14:36.573Z,100.0
2017-09-03T02:15:37.226Z,100.0
2017-09-03T02:16:37.882Z,100.0
2017-09-03T02:17:38.834Z,100.0
2017-09-03T02:18:39.486Z,100.0
2017-09-03T02:19:40.146Z,100.0
2017-09-03T02:20:40.792Z,100.0
2017-09-03T02:21:41.456Z,100.0
2017-09-03T02:22:42.348Z,100.0
2017-09-03T02:23:43.002Z,100.0
2017-09-03T02:24:43.653Z,100.0
2017-09-03T02:25:44.307Z,100.0
2017-09-03T02:26:44.959Z,100.0
2017-09-03T02:27:45.914Z,100.0
2017-09-03T02:28:46.566Z,100.0
2017-09-03T02:29:47.219Z,100.0
2017-09-03T02:30:47.873Z,100.0
2017-09-03T02:31:48.525Z,100.0
2017-09-03T02:32:49.478Z,100.0
2017-09-03T02:33:50.133Z,100.0
2017-09-03T02:34:50.784Z,100.0
2017-09-03T02:35:51.471Z,100.0
2017-09-03T02:36:52.124Z,100.0
2017-09-03T02:37:53.026Z,100.0
2017-09-03T02:38:53.679Z,100.0
2017-09-03T02:39:54.332Z,100.0
2017-09-03T02:40:54.987Z,100.0
2017-09-03T02:41:55.637Z,100.0
2017-09-03T02:42:56.590Z,100.0
2017-09-03T02:43:57.245Z,100.0
2017-09-03T02:44:57.897Z,100.0
2017-09-03T02:45:58.550Z,100.0
2017-09-03T02:46:59.203Z,100.0
2017-09-03T02:48:00.160Z,100.0
2017-09-03T02:49:00.845Z,100.0
2017-09-03T02:50:01.498Z,100.0
2017-09-03T02:51:02.150Z,100.0
2017-09-03T02:52:02.802Z,100.0
2017-09-03T02:53:03.706Z,100.0
2017-09-03T02:54:04.358Z,100.0
2017-09-03T02:55:05.011Z,100.0
2017-09-03T02:56:05.662Z,100.0
2017-09-03T02:57:06.318Z,100.0
2017-09-03T02:58:07.220Z,100.0
2017-09-03T02:59:07.871Z,100.0
2017-09-03T03:00:08.526Z,100.0
2017-09-03T03:01:09.179Z,100.0
2017-09-03T03:02:09.832Z,100.0
2017-09-03T03:03:10.736Z,100.0
2017-09-03T03:04:11.390Z,100.0
2017-09-03T03:05:12.041Z,100.0
2017-09-03T03:06:12.696Z,100.0
2017-09-03T03:07:13.349Z,100.0
2017-09-03T03:08:14.252Z,100.0
2017-09-03T03:09:14.906Z,100.0
2017-09-03T03:10:15.559Z,100.0
2017-09-03T03:11:16.211Z,100.0
2017-09-03T03:12:16.866Z,100.0
2017-09-03T03:13:17.772Z,100.0
2017-09-03T03:14:18.426Z,100.0
2017-09-03T03:15:19.078Z,100.0
2017-09-03T03:16:19.731Z,100.0
2017-09-03T03:17:20.384Z,100.0
2017-09-03T03:18:21.338Z,100.0
2017-09-03T03:19:21.991Z,100.0
2017-09-03T03:20:22.646Z,100.0
2017-09-03T03:21:23.298Z,100.0
2017-09-03T03:22:23.951Z,100.0
2017-09-03T03:23:24.906Z,100.0
2017-09-03T03:24:25.558Z,100.0
2017-09-03T03:25:26.211Z,100.0
2017-09-03T03:26:26.863Z,100.0
2017-09-03T03:27:27.518Z,100.0
2017-09-03T03:28:28.420Z,100.0
2017-09-03T03:29:29.073Z,100.0
2017-09-03T03:30:29.728Z,100.0
2017-09-03T03:31:30.381Z,100.0
2017-09-03T03:32:31.033Z,100.0
2017-09-03T03:33:31.988Z,100.0
2017-09-03T03:34:32.642Z,100.0
2017-09-03T03:35:33.295Z,100.0
2017-09-03T03:36:33.947Z,100.0
2017-09-03T03:37:34.602Z,100.0
2017-09-03T03:38:35.560Z,100.0
2017-09-03T03:39:36.214Z,100.0
2017-09-03T03:40:36.866Z,100.0
2017-09-03T03:41:37.518Z,100.0
2017-09-03T03:42:38.171Z,100.0
2017-09-03T03:43:39.111Z,100.0
2017-09-03T03:44:39.763Z,100.0
2017-09-03T03:45:40.417Z,100.0
2017-09-03T03:46:41.070Z,100.0
2017-09-03T03:47:41.722Z,100.0
2017-09-03T03:48:42.626Z,100.0
2017-09-03T03:49:43.280Z,100.0
2017-09-03T03:50:43.932Z,100.0
2017-09-03T03:51:44.587Z,100.0
2017-09-03T03:52:45.243Z,100.0
2017-09-03T03:53:46.193Z,100.0
2017-09-03T03:54:46.845Z,100.0
2017-09-03T03:55:47.501Z,100.0
2017-09-03T03:56:48.154Z,100.0
2017-09-03T03:57:48.807Z,100.0
2017-09-03T03:58:49.708Z,100.0
2017-09-03T03:59:50.361Z,100.0
2017-09-03T04:00:51.015Z,100.0
2017-09-03T04:01:51.668Z,100.0
2017-09-03T04:02:52.320Z,100.0
2017-09-03T04:03:53.224Z,100.0
2017-09-03T04:04:53.877Z,100.0
2017-09-03T04:05:54.529Z,100.0
2017-09-03T04:06:55.185Z,100.0
2017-09-03T04:07:55.835Z,100.0
2017-09-03T04:08:56.789Z,100.0
2017-09-03T04:09:57.442Z,100.0
2017-09-03T04:10:58.096Z,100.0
2017-09-03T04:11:58.784Z,100.0
2017-09-03T04:12:59.440Z,100.0
2017-09-03T04:14:00.342Z,100.0
2017-09-03T04:15:00.995Z,100.0
2017-09-03T04:16:01.649Z,100.0
2017-09-03T04:17:02.303Z,100.0
2017-09-03T04:18:02.956Z,100.0
2017-09-03T04:19:03.861Z,100.0
2017-09-03T04:20:04.517Z,100.0
2017-09-03T04:21:05.170Z,100.0
2017-09-03T04:22:05.825Z,100.0
2017-09-03T04:23:06.477Z,100.0
2017-09-03T04:24:07.381Z,100.0
2017-09-03T04:25:08.035Z,100.0
2017-09-03T04:26:08.688Z,100.0
2017-09-03T04:27:09.348Z,100.0
2017-09-03T04:28:10.033Z,100.0
2017-09-03T04:29:10.937Z,100.0
2017-09-03T04:30:11.591Z,100.0
2017-09-03T04:31:12.246Z,100.0
2017-09-03T04:32:12.900Z,100.0
2017-09-03T04:33:13.555Z,100.0
2017-09-03T04:34:14.460Z,100.0
2017-09-03T04:35:15.116Z,100.0
2017-09-03T04:36:15.809Z,100.0
2017-09-03T04:37:16.462Z,100.0
2017-09-03T04:38:17.116Z,100.0
2017-09-03T04:39:18.021Z,100.0
2017-09-03T04:40:18.713Z,100.0
2017-09-03T04:41:19.367Z,100.0
2017-09-03T04:42:20.022Z,100.0
2017-09-03T04:43:20.678Z,100.0
2017-09-03T04:44:21.632Z,100.0
2017-09-03T04:45:22.285Z,100.0
2017-09-03T04:46:22.941Z,100.0
2017-09-03T04:47:23.595Z,100.0
2017-09-03T04:48:24.252Z,100.0
2017-09-03T04:49:25.157Z,100.0
2017-09-03T04:50:25.813Z,100.0
2017-09-03T04:51:26.471Z,100.0
2017-09-03T04:52:27.126Z,100.0
2017-09-03T04:53:27.781Z,100.0
2017-09-03T04:54:28.698Z,100.0
2017-09-03T04:55:29.354Z,100.0
2017-09-03T04:56:30.046Z,100.0
2017-09-03T04:57:30.703Z,100.0
2017-09-03T04:58:31.359Z,100.0
2017-09-03T04:59:32.266Z,100.0
2017-09-03T05:00:32.925Z,100.0
2017-09-03T05:01:33.583Z,100.0
2017-09-03T05:02:34.239Z,100.0
2017-09-03T05:03:34.898Z,100.0
2017-09-03T05:04:35.806Z,100.0
2017-09-03T05:05:36.465Z,100.0
2017-09-03T05:06:37.123Z,100.0
2017-09-03T05:07:37.778Z,100.0
2017-09-03T05:08:38.435Z,100.0
2017-09-03T05:09:39.344Z,100.0
2017-09-03T05:10:40.003Z,100.0
2017-09-03T05:11:40.657Z,100.0
2017-09-03T05:12:41.321Z,100.0
2017-09-03T05:13:42.009Z,100.0
2017-09-03T05:14:43.003Z,100.0
2017-09-03T05:15:43.659Z,100.0
2017-09-03T05:16:44.316Z,100.0
2017-09-03T05:17:44.973Z,100.0
2017-09-03T05:18:45.630Z,100.0
2017-09-03T05:19:46.539Z,100.0
2017-09-03T05:20:47.194Z,100.0
2017-09-03T05:21:47.852Z,100.0
2017-09-03T05:22:48.510Z,100.0
2017-09-03T05:23:49.166Z,100.0
2017-09-03T05:24:50.076Z,100.0
2017-09-03T05:25:50.733Z,100.0
2017-09-03T05:26:51.401Z,100.0
2017-09-03T05:27:52.058Z,100.0
2017-09-03T05:28:52.715Z,100.0
2017-09-03T05:29:53.673Z,100.0
2017-09-03T05:30:54.366Z,100.0
2017-09-03T05:31:55.023Z,100.0
2017-09-03T05:32:55.679Z,100.0
2017-09-03T05:33:56.336Z,100.0
2017-09-03T05:34:57.296Z,100.0
2017-09-03T05:35:57.956Z,100.0
2017-09-03T05:36:58.612Z,100.0
2017-09-03T05:37:59.268Z,100.0
2017-09-03T05:38:59.927Z,100.0
2017-09-03T05:40:00.833Z,100.0
2017-09-03T05:41:01.490Z,100.0
2017-09-03T05:42:02.146Z,100.0
2017-09-03T05:43:02.805Z,100.0
2017-09-03T05:44:03.461Z,100.0
2017-09-03T05:45:04.454Z,100.0
2017-09-03T05:46:05.110Z,100.0
2017-09-03T05:47:05.776Z,100.0
2017-09-03T05:48:06.461Z,100.0
2017-09-03T05:49:07.120Z,100.0
2017-09-03T05:50:08.078Z,100.0
2017-09-03T05:51:08.736Z,100.0
2017-09-03T05:52:09.394Z,100.0
2017-09-03T05:53:10.052Z,100.0
2017-09-03T05:54:10.711Z,100.0
2017-09-03T05:55:11.621Z,100.0
2017-09-03T05:56:12.281Z,100.0
2017-09-03T05:57:12.969Z,100.0
2017-09-03T05:58:13.608Z,100.0
2017-09-03T05:59:14.266Z,100.0
2017-09-03T06:00:15.174Z,100.0
2017-09-03T06:01:15.835Z,100.0
2017-09-03T06:02:16.495Z,100.0
2017-09-03T06:03:17.189Z,100.0
2017-09-03T06:04:17.846Z,100.0
2017-09-03T06:05:18.805Z,100.0
2017-09-03T06:06:19.467Z,100.0
2017-09-03T06:07:20.125Z,100.0
2017-09-03T06:08:20.784Z,100.0
2017-09-03T06:09:21.443Z,100.0
2017-09-03T06:10:22.402Z,100.0
2017-09-03T06:11:23.061Z,100.0
2017-09-03T06:12:23.721Z,100.0
2017-09-03T06:13:24.382Z,100.0
2017-09-03T06:14:25.041Z,100.0
2017-09-03T06:15:25.949Z,100.0
2017-09-03T06:16:26.608Z,100.0
2017-09-03T06:17:27.266Z,100.0
2017-09-03T06:18:27.927Z,100.0
2017-09-03T06:19:28.589Z,100.0
2017-09-03T06:20:29.496Z,100.0
2017-09-03T06:21:30.157Z,100.0
2017-09-03T06:22:30.815Z,100.0
2017-09-03T06:23:31.475Z,100.0
2017-09-03T06:24:32.136Z,100.0
2017-09-03T06:25:33.049Z,100.0
2017-09-03T06:26:33.739Z,99.9
2017-09-03T06:27:34.398Z,99.9
2017-09-03T06:28:35.059Z,100.0
2017-09-03T06:29:35.715Z,99.9
2017-09-03T06:30:36.624Z,99.6
2017-09-03T06:31:37.283Z,100.0
2017-09-03T06:32:37.944Z,99.9
2017-09-03T06:33:38.603Z,99.3
2017-09-03T06:34:39.262Z,99.2
2017-09-03T06:35:40.173Z,98.9
2017-09-03T06:36:40.867Z,98.7
2017-09-03T06:37:41.527Z,97.9
2017-09-03T06:38:42.186Z,97.7
2017-09-03T06:39:42.843Z,97.7
2017-09-03T06:40:43.753Z,97.8
2017-09-03T06:41:44.414Z,98.3
2017-09-03T06:42:45.074Z,97.2
2017-09-03T06:43:45.731Z,97.1
2017-09-03T06:44:46.389Z,97.1
2017-09-03T06:45:47.297Z,95.9
2017-09-03T06:46:47.957Z,95.7
2017-09-03T06:47:48.616Z,95.6
2017-09-03T06:48:49.284Z,96.1
2017-09-03T06:49:49.932Z,95.6
2017-09-03T06:50:50.841Z,95.2
2017-09-03T06:51:51.501Z,95.6
2017-09-03T06:52:52.159Z,95.1
2017-09-03T06:53:52.818Z,96.0
2017-09-03T06:54:53.478Z,95.2
2017-09-03T06:55:54.385Z,95.2
2017-09-03T06:56:55.050Z,94.7
2017-09-03T06:57:55.702Z,94.6
2017-09-03T06:58:56.361Z,94.6
2017-09-03T06:59:57.023Z,94.7
2017-09-03T07:00:57.933Z,94.6
2017-09-03T07:01:58.592Z,94.6
2017-09-03T07:02:59.250Z,93.9
2017-09-03T07:03:59.910Z,94.1
2017-09-03T07:05:00.575Z,93.9
2017-09-03T07:06:01.485Z,94.6
2017-09-03T07:07:02.146Z,94.2
2017-09-03T07:08:02.806Z,93.9
2017-09-03T07:09:03.465Z,93.2
2017-09-03T07:10:04.125Z,93.7
2017-09-03T07:11:05.073Z,93.4
2017-09-03T07:12:05.732Z,93.4
2017-09-03T07:13:06.391Z,91.9
2017-09-03T07:14:07.051Z,91.7
2017-09-03T07:15:07.712Z,91.5
2017-09-03T07:16:08.624Z,91.9
2017-09-03T07:17:09.286Z,91.7
2017-09-03T07:18:09.945Z,91.1
2017-09-03T07:19:10.606Z,90.5
2017-09-03T07:20:11.268Z,90.0
2017-09-03T07:21:12.178Z,90.5
2017-09-03T07:22:12.843Z,91.0
2017-09-03T07:23:13.504Z,90.8
2017-09-03T07:24:14.164Z,90.6
2017-09-03T07:25:14.824Z,90.2
2017-09-03T07:26:15.734Z,90.8
2017-09-03T07:27:16.395Z,91.2
2017-09-03T07:28:17.062Z,91.3
2017-09-03T07:29:17.724Z,91.2
2017-09-03T07:30:18.384Z,90.3
2017-09-03T07:31:19.292Z,89.0
2017-09-03T07:32:19.989Z,88.6
2017-09-03T07:33:20.651Z,88.6
2017-09-03T07:34:21.313Z,88.3
2017-09-03T07:35:21.971Z,88.6
2017-09-03T07:36:22.882Z,91.8
2017-09-03T07:37:23.545Z,88.8
2017-09-03T07:38:24.241Z,88.2
2017-09-03T07:39:24.900Z,87.4
2017-09-03T07:40:25.562Z,87.6
2017-09-03T07:41:26.557Z,87.4
2017-09-03T07:42:27.184Z,87.0
2017-09-03T07:43:27.845Z,86.2
2017-09-03T07:44:28.508Z,85.7
2017-09-03T07:45:29.168Z,86.3
2017-09-03T07:46:30.113Z,86.8
2017-09-03T07:47:30.773Z,86.8
2017-09-03T07:48:31.478Z,87.3
2017-09-03T07:49:32.139Z,86.9
2017-09-03T07:50:32.801Z,86.8
2017-09-03T07:51:33.711Z,85.4
2017-09-03T07:52:34.371Z,85.4
2017-09-03T07:53:35.034Z,84.4
2017-09-03T07:54:35.717Z,84.9
2017-09-03T07:55:36.356Z,84.9
2017-09-03T07:56:37.266Z,85.2
2017-09-03T07:57:37.927Z,85.4
2017-09-03T07:58:38.589Z,84.4
2017-09-03T07:59:39.249Z,84.9
2017-09-03T08:00:39.909Z,84.0
2017-09-03T08:01:40.870Z,86.6
2017-09-03T08:02:41.531Z,84.8
2017-09-03T08:03:42.192Z,84.8
2017-09-03T08:04:42.855Z,84.0
2017-09-03T08:05:43.517Z,83.5
2017-09-03T08:06:44.428Z,82.9
2017-09-03T08:07:45.090Z,81.6
2017-09-03T08:08:45.753Z,82.1
2017-09-03T08:09:46.450Z,82.0
2017-09-03T08:10:47.113Z,81.6
2017-09-03T08:11:48.027Z,81.2
2017-09-03T08:12:48.689Z,81.6
2017-09-03T08:13:49.357Z,80.6
2017-09-03T08:14:50.049Z,82.2
2017-09-03T08:15:50.712Z,81.3
2017-09-03T08:16:51.626Z,80.0
2017-09-03T08:17:52.287Z,79.9
2017-09-03T08:18:52.948Z,80.1
2017-09-03T08:19:53.611Z,81.1
2017-09-03T08:20:54.273Z,80.6
2017-09-03T08:21:55.236Z,81.4
2017-09-03T08:22:55.901Z,80.5
2017-09-03T08:23:56.564Z,80.5
2017-09-03T08:24:57.227Z,80.7
2017-09-03T08:25:57.894Z,79.6
2017-09-03T08:26:58.809Z,77.6
2017-09-03T08:27:59.472Z,77.1
2017-09-03T08:29:00.133Z,74.7
2017-09-03T08:30:00.797Z,75.1
2017-09-03T08:31:01.460Z,74.4
2017-09-03T08:32:02.374Z,75.1
2017-09-03T08:33:03.041Z,73.1
2017-09-03T08:34:03.703Z,72.1
2017-09-03T08:35:04.367Z,71.5
2017-09-03T08:36:05.031Z,70.3
2017-09-03T08:37:05.993Z,69.6
2017-09-03T08:38:06.656Z,68.3
2017-09-03T08:39:07.321Z,68.4
2017-09-03T08:40:07.985Z,66.9
2017-09-03T08:41:08.647Z,66.3
2017-09-03T08:42:09.561Z,72.3
2017-09-03T08:43:10.226Z,71.5
2017-09-03T08:44:10.891Z,68.1
2017-09-03T08:45:11.554Z,65.0
2017-09-03T08:46:12.220Z,65.0
2017-09-03T08:47:13.137Z,64.2
2017-09-03T08:48:13.802Z,64.9
2017-09-03T08:49:14.464Z,64.9
2017-09-03T08:50:15.131Z,63.2
2017-09-03T08:51:15.797Z,62.6
2017-09-03T08:52:16.711Z,62.7
2017-09-03T08:53:17.383Z,62.5
2017-09-03T08:54:18.055Z,62.7
2017-09-03T08:55:18.710Z,62.5
2017-09-03T08:56:19.377Z,61.3
2017-09-03T08:57:20.291Z,61.0
2017-09-03T08:58:20.957Z,64.3
2017-09-03T08:59:21.624Z,64.5
2017-09-03T09:00:22.327Z,62.5
2017-09-03T09:01:22.991Z,61.5
2017-09-03T09:02:23.958Z,59.4
2017-09-03T09:03:24.623Z,59.3
2017-09-03T09:04:25.290Z,53.9
2017-09-03T09:05:25.954Z,56.2
2017-09-03T09:06:26.621Z,55.1
2017-09-03T09:07:27.541Z,53.2
2017-09-03T09:08:28.208Z,51.7
2017-09-03T09:09:28.873Z,49.7
2017-09-03T09:10:29.542Z,50.5
2017-09-03T09:11:30.219Z,48.6
2017-09-03T09:12:31.163Z,48.1
2017-09-03T09:13:31.831Z,47.1
2017-09-03T09:14:32.498Z,45.7
2017-09-03T09:15:33.167Z,47.8
2017-09-03T09:16:33.837Z,48.1
2017-09-03T09:17:34.805Z,45.1
2017-09-03T09:18:35.472Z,44.3
2017-09-03T09:19:36.149Z,42.8
2017-09-03T09:20:36.847Z,44.7
2017-09-03T09:21:37.519Z,44.8
2017-09-03T09:22:38.486Z,42.6
2017-09-03T09:23:39.156Z,40.9
2017-09-03T09:24:39.825Z,41.4
2017-09-03T09:25:40.493Z,42.1
2017-09-03T09:26:41.162Z,40.3
2017-09-03T09:27:42.118Z,40.4
2017-09-03T09:28:42.787Z,39.6
2017-09-03T09:29:43.456Z,39.0
2017-09-03T09:30:44.125Z,38.9
2017-09-03T09:31:44.794Z,38.3
2017-09-03T09:32:45.715Z,38.4
2017-09-03T09:33:46.382Z,38.3
2017-09-03T09:34:47.051Z,36.3
2017-09-03T09:35:47.719Z,34.8
2017-09-03T09:36:48.389Z,37.1
2017-09-03T09:37:49.308Z,36.9
2017-09-03T09:38:49.980Z,34.9
2017-09-03T09:39:50.684Z,35.0
2017-09-03T09:40:51.354Z,33.8
2017-09-03T09:41:52.024Z,34.9
2017-09-03T09:42:52.944Z,33.9
2017-09-03T09:43:53.614Z,33.3
2017-09-03T09:44:54.283Z,32.2
2017-09-03T09:45:54.951Z,31.9
2017-09-03T09:46:55.620Z,32.4
2017-09-03T09:47:56.538Z,32.4
2017-09-03T09:48:57.207Z,31.7
2017-09-03T09:49:57.877Z,30.5
2017-09-03T09:50:58.556Z,31.3
2017-09-03T09:51:59.227Z,31.4
2017-09-03T09:53:00.199Z,30.5
2017-09-03T09:54:00.869Z,30.9
2017-09-03T09:55:01.539Z,29.8
2017-09-03T09:56:02.209Z,29.7
2017-09-03T09:57:02.877Z,28.9
2017-09-03T09:58:03.883Z,27.9
2017-09-03T09:59:04.559Z,28.9
2017-09-03T10:00:05.226Z,28.0
2017-09-03T10:01:05.898Z,28.5
2017-09-03T10:02:06.571Z,27.7
2017-09-03T10:03:07.541Z,28.2
2017-09-03T10:04:08.214Z,28.1
2017-09-03T10:05:08.883Z,26.9
2017-09-03T10:06:09.556Z,26.1
2017-09-03T10:07:10.227Z,25.6
2017-09-03T10:08:11.148Z,26.9
2017-09-03T10:09:11.825Z,24.6
2017-09-03T10:10:12.498Z,26.4
2017-09-03T10:11:13.173Z,26.2
2017-09-03T10:12:13.845Z,24.2
2017-09-03T10:13:14.850Z,25.0
2017-09-03T10:14:15.522Z,27.3
2017-09-03T10:15:16.194Z,26.5
2017-09-03T10:16:16.868Z,27.6
2017-09-03T10:17:17.542Z,28.0
2017-09-03T10:18:18.515Z,26.9
2017-09-03T10:19:19.194Z,26.6
2017-09-03T10:20:19.859Z,26.0
2017-09-03T10:21:20.535Z,25.1
2017-09-03T10:22:21.208Z,23.9
2017-09-03T10:23:22.135Z,22.2
2017-09-03T10:24:22.811Z,21.1
2017-09-03T10:25:23.518Z,22.0
2017-09-03T10:26:24.189Z,22.6
2017-09-03T10:27:24.861Z,21.1
2017-09-03T10:28:25.789Z,22.0
2017-09-03T10:29:26.459Z,21.0
2017-09-03T10:30:27.167Z,23.9
2017-09-03T10:31:27.840Z,24.5
2017-09-03T10:32:28.513Z,22.8
2017-09-03T10:33:29.483Z,23.2
2017-09-03T10:34:30.155Z,22.8
2017-09-03T10:35:30.829Z,22.1
2017-09-03T10:36:31.503Z,21.2
2017-09-03T10:37:32.182Z,20.2
2017-09-03T10:38:33.108Z,18.7
2017-09-03T10:39:33.780Z,20.2
2017-09-03T10:40:34.452Z,20.1
2017-09-03T10:41:35.127Z,19.3
2017-09-03T10:42:35.803Z,18.7
2017-09-03T10:43:36.775Z,19.2
2017-09-03T10:44:37.447Z,18.6
2017-09-03T10:45:38.124Z,19.9
2017-09-03T10:46:38.796Z,21.1
2017-09-03T10:47:39.469Z,20.4
2017-09-03T10:48:40.443Z,19.8
2017-09-03T10:49:41.118Z,19.8
2017-09-03T10:50:41.791Z,18.5
2017-09-03T10:51:42.463Z,18.2
2017-09-03T10:52:43.140Z,20.3
2017-09-03T10:53:44.116Z,21.8
2017-09-03T10:54:44.791Z,21.5
2017-09-03T10:55:45.468Z,19.9
2017-09-03T10:56:46.145Z,17.6
2017-09-03T10:57:46.819Z,18.1
2017-09-03T10:58:47.744Z,16.9
2017-09-03T10:59:48.418Z,19.1
2017-09-03T11:00:49.092Z,18.7
2017-09-03T11:01:49.770Z,18.1
2017-09-03T11:02:50.440Z,18.6
2017-09-03T11:03:51.365Z,17.4
2017-09-03T11:04:52.041Z,17.2
2017-09-03T11:05:52.719Z,17.2
2017-09-03T11:06:53.393Z,15.0
2017-09-03T11:07:54.067Z,14.3
2017-09-03T11:08:55.027Z,13.6
2017-09-03T11:09:55.702Z,14.1
2017-09-03T11:10:56.378Z,14.7
2017-09-03T11:11:57.067Z,19.1
2017-09-03T11:12:57.732Z,16.5
2017-09-03T11:13:58.708Z,16.3
2017-09-03T11:14:59.386Z,18.8
2017-09-03T11:16:00.061Z,15.3
2017-09-03T11:17:00.736Z,16.6
2017-09-03T11:18:01.411Z,16.3
2017-09-03T11:19:02.334Z,15.7
2017-09-03T11:20:03.010Z,15.4
2017-09-03T11:21:03.684Z,16.9
2017-09-03T11:22:04.359Z,15.1
2017-09-03T11:23:05.035Z,17.0
2017-09-03T11:24:05.962Z,17.9
2017-09-03T11:25:06.636Z,14.3
2017-09-03T11:26:07.310Z,14.6
2017-09-03T11:27:07.983Z,17.1
2017-09-03T11:28:08.660Z,14.6
2017-09-03T11:29:09.718Z,14.5
2017-09-03T11:30:10.430Z,13.5
2017-09-03T11:31:11.107Z,13.8
2017-09-03T11:32:11.783Z,13.9
2017-09-03T11:33:12.463Z,13.6
2017-09-03T11:34:13.389Z,14.3
2017-09-03T11:35:14.064Z,14.0
2017-09-03T11:36:14.739Z,13.4
2017-09-03T11:37:15.416Z,12.1
2017-09-03T11:38:16.093Z,13.7
2017-09-03T11:39:17.016Z,13.3
2017-09-03T11:40:17.690Z,14.5
2017-09-03T11:41:18.399Z,14.0
2017-09-03T11:42:19.071Z,14.5
2017-09-03T11:43:19.745Z,13.8
2017-09-03T11:44:20.670Z,13.8
2017-09-03T11:45:21.342Z,16.5
2017-09-03T11:46:22.013Z,16.7
2017-09-03T11:47:22.687Z,17.1
2017-09-03T11:48:23.356Z,16.5
2017-09-03T11:49:24.278Z,16.6
2017-09-03T11:50:24.952Z,16.8
2017-09-03T11:51:25.660Z,16.3
2017-09-03T11:52:26.335Z,16.2
2017-09-03T11:53:27.006Z,16.3
2017-09-03T11:54:27.927Z,17.1
2017-09-03T11:55:28.598Z,17.6
2017-09-03T11:56:29.269Z,14.8
2017-09-03T11:57:29.941Z,15.8
2017-09-03T11:58:30.613Z,12.9
2017-09-03T11:59:31.573Z,12.0
2017-09-03T12:00:32.247Z,13.0
2017-09-03T12:01:32.916Z,11.8
2017-09-03T12:02:33.585Z,13.5
2017-09-03T12:03:34.289Z,15.5
2017-09-03T12:04:35.209Z,16.7
2017-09-03T12:05:35.881Z,18.2
2017-09-03T12:06:36.552Z,16.7
2017-09-03T12:07:37.230Z,16.6
2017-09-03T12:08:37.900Z,17.7
2017-09-03T12:09:38.823Z,19.3
2017-09-03T12:10:39.495Z,16.9
2017-09-03T12:11:40.168Z,14.8
2017-09-03T12:12:40.875Z,16.1
2017-09-03T12:13:41.547Z,17.8
2017-09-03T12:14:42.516Z,21.8
2017-09-03T12:15:43.188Z,21.9
2017-09-03T12:16:43.860Z,19.2
2017-09-03T12:17:44.529Z,18.6
2017-09-03T12:18:45.198Z,17.5
2017-09-03T12:19:46.168Z,18.2
2017-09-03T12:20:46.839Z,17.1
2017-09-03T12:21:47.510Z,15.6
2017-09-03T12:22:48.180Z,14.6
2017-09-03T12:23:48.852Z,13.9
2017-09-03T12:24:49.776Z,13.5
2017-09-03T12:25:50.481Z,13.9
2017-09-03T12:26:51.154Z,13.9
2017-09-03T12:27:51.825Z,13.8
2017-09-03T12:28:52.496Z,14.0
2017-09-03T12:29:53.419Z,14.6
2017-09-03T12:30:54.093Z,12.2
2017-09-03T12:31:54.765Z,11.5
2017-09-03T12:32:55.436Z,10.2
2017-09-03T12:33:56.108Z,9.8
2017-09-03T12:34:57.029Z,9.3
2017-09-03T12:35:57.701Z,9.0
2017-09-03T12:36:58.408Z,9.4
2017-09-03T12:37:59.084Z,10.2
2017-09-03T12:38:59.793Z,10.3
2017-09-03T12:40:00.716Z,9.8
2017-09-03T12:41:01.392Z,8.7
2017-09-03T12:42:02.064Z,8.9
2017-09-03T12:43:02.735Z,8.8
2017-09-03T12:44:03.411Z,8.9
2017-09-03T12:45:04.334Z,8.0
2017-09-03T12:46:05.006Z,7.8
2017-09-03T12:47:05.678Z,8.8
2017-09-03T12:48:06.352Z,7.6
2017-09-03T12:49:07.027Z,8.3
2017-09-03T12:50:07.952Z,6.4
2017-09-03T12:51:08.625Z,6.5
2017-09-03T12:52:09.299Z,8.9
2017-09-03T12:53:09.974Z,8.1
2017-09-03T12:54:10.649Z,8.0
2017-09-03T12:55:11.573Z,8.9
2017-09-03T12:56:12.248Z,10.0
2017-09-03T12:57:12.925Z,8.9
2017-09-03T12:58:13.600Z,8.4
2017-09-03T12:59:14.279Z,7.8
2017-09-03T13:00:15.202Z,9.3
2017-09-03T13:01:15.879Z,8.1
2017-09-03T13:02:16.554Z,8.9
2017-09-03T13:03:17.231Z,9.3
2017-09-03T13:04:17.905Z,9.4
2017-09-03T13:05:18.879Z,8.7
2017-09-03T13:06:19.554Z,8.8
2017-09-03T13:07:20.229Z,8.8
2017-09-03T13:08:20.904Z,7.6
2017-09-03T13:09:21.579Z,7.3
2017-09-03T13:10:22.507Z,8.3
2017-09-03T13:11:23.183Z,8.3
2017-09-03T13:12:23.883Z,8.4
2017-09-03T13:13:24.535Z,7.2
2017-09-03T13:14:25.209Z,7.3
2017-09-03T13:15:26.135Z,7.8
2017-09-03T13:16:26.807Z,7.5